sensor_id;sensor_type;location;lat;lon;timestamp;temperature;humidity
82001;SHT30;71522;50.870;3.524;2023-07-28T00:00:31;18.53;90.15
82001;SHT30;71522;50.870;3.524;2023-07-28T00:02:56;18.50;90.12
82001;SHT30;71522;50.870;3.524;2023-07-28T00:05:22;18.45;90.37
82001;SHT30;71522;50.870;3.524;2023-07-28T00:07:48;18.51;90.24
82001;SHT30;71522;50.870;3.524;2023-07-28T00:10:13;18.51;90.27
82001;SHT30;71522;50.870;3.524;2023-07-28T00:12:39;18.60;90.03
82001;SHT30;71522;50.870;3.524;2023-07-28T00:15:05;18.60;89.88
82001;SHT30;71522;50.870;3.524;2023-07-28T00:17:31;18.61;89.82
82001;SHT30;71522;50.870;3.524;2023-07-28T00:19:57;18.62;89.81
82001;SHT30;71522;50.870;3.524;2023-07-28T00:22:23;18.60;89.95
82001;SHT30;71522;50.870;3.524;2023-07-28T00:24:48;18.60;89.93
82001;SHT30;71522;50.870;3.524;2023-07-28T00:27:15;18.57;89.98
82001;SHT30;71522;50.870;3.524;2023-07-28T00:29:41;18.55;90.05
82001;SHT30;71522;50.870;3.524;2023-07-28T00:32:08;18.53;90.16
82001;SHT30;71522;50.870;3.524;2023-07-28T00:34:33;18.61;89.88
82001;SHT30;71522;50.870;3.524;2023-07-28T00:36:59;18.60;89.68
82001;SHT30;71522;50.870;3.524;2023-07-28T00:39:25;18.65;89.58
82001;SHT30;71522;50.870;3.524;2023-07-28T00:41:50;18.62;89.64
82001;SHT30;71522;50.870;3.524;2023-07-28T00:44:16;18.58;89.76
82001;SHT30;71522;50.870;3.524;2023-07-28T00:46:44;18.62;89.61
82001;SHT30;71522;50.870;3.524;2023-07-28T00:49:10;18.68;89.53
82001;SHT30;71522;50.870;3.524;2023-07-28T00:51:37;18.71;89.39
82001;SHT30;71522;50.870;3.524;2023-07-28T00:54:04;18.75;89.26
82001;SHT30;71522;50.870;3.524;2023-07-28T00:56:31;18.81;89.01
82001;SHT30;71522;50.870;3.524;2023-07-28T00:58:58;18.82;89.01
82001;SHT30;71522;50.870;3.524;2023-07-28T01:01:25;18.85;89.00
82001;SHT30;71522;50.870;3.524;2023-07-28T01:03:52;18.87;88.98
82001;SHT30;71522;50.870;3.524;2023-07-28T01:06:35;18.91;88.81
82001;SHT30;71522;50.870;3.524;2023-07-28T01:09:08;18.87;88.91
82001;SHT30;71522;50.870;3.524;2023-07-28T01:11:35;18.88;88.96
82001;SHT30;71522;50.870;3.524;2023-07-28T01:14:01;18.88;89.11
82001;SHT30;71522;50.870;3.524;2023-07-28T01:16:27;18.82;89.25
82001;SHT30;71522;50.870;3.524;2023-07-28T01:18:52;18.79;89.38
82001;SHT30;71522;50.870;3.524;2023-07-28T01:21:26;18.79;89.38
82001;SHT30;71522;50.870;3.524;2023-07-28T01:24:06;18.71;89.73
82001;SHT30;71522;50.870;3.524;2023-07-28T01:26:38;18.71;89.78
82001;SHT30;71522;50.870;3.524;2023-07-28T01:29:06;18.64;89.95
82001;SHT30;71522;50.870;3.524;2023-07-28T01:31:32;18.64;89.93
82001;SHT30;71522;50.870;3.524;2023-07-28T01:33:59;18.65;89.99
82001;SHT30;71522;50.870;3.524;2023-07-28T01:36:25;18.68;89.97
82001;SHT30;71522;50.870;3.524;2023-07-28T01:38:51;18.69;89.79
82001;SHT30;71522;50.870;3.524;2023-07-28T01:41:18;18.71;89.64
82001;SHT30;71522;50.870;3.524;2023-07-28T01:43:44;18.74;89.59
82001;SHT30;71522;50.870;3.524;2023-07-28T01:46:10;18.72;89.49
82001;SHT30;71522;50.870;3.524;2023-07-28T01:48:35;18.75;89.48
82001;SHT30;71522;50.870;3.524;2023-07-28T01:51:01;18.78;89.45
82001;SHT30;71522;50.870;3.524;2023-07-28T01:53:27;18.74;89.41
82001;SHT30;71522;50.870;3.524;2023-07-28T01:55:53;18.76;89.31
82001;SHT30;71522;50.870;3.524;2023-07-28T01:58:18;18.82;89.24
82001;SHT30;71522;50.870;3.524;2023-07-28T02:00:44;18.85;89.08
82001;SHT30;71522;50.870;3.524;2023-07-28T02:03:12;18.89;88.83
82001;SHT30;71522;50.870;3.524;2023-07-28T02:05:38;18.89;88.75
82001;SHT30;71522;50.870;3.524;2023-07-28T02:08:04;18.87;88.74
82001;SHT30;71522;50.870;3.524;2023-07-28T02:10:30;18.76;88.87
82001;SHT30;71522;50.870;3.524;2023-07-28T02:12:56;18.76;88.97
82001;SHT30;71522;50.870;3.524;2023-07-28T02:15:21;18.85;88.81
82001;SHT30;71522;50.870;3.524;2023-07-28T02:17:47;18.88;88.71
82001;SHT30;71522;50.870;3.524;2023-07-28T02:20:13;18.88;88.65
82001;SHT30;71522;50.870;3.524;2023-07-28T02:22:41;18.88;88.69
82001;SHT30;71522;50.870;3.524;2023-07-28T02:25:08;18.81;88.97
82001;SHT30;71522;50.870;3.524;2023-07-28T02:27:34;18.79;88.98
82001;SHT30;71522;50.870;3.524;2023-07-28T02:29:59;18.79;88.96
82001;SHT30;71522;50.870;3.524;2023-07-28T02:32:28;18.81;89.12
82001;SHT30;71522;50.870;3.524;2023-07-28T02:34:55;18.81;88.99
82001;SHT30;71522;50.870;3.524;2023-07-28T02:37:21;18.85;88.92
82001;SHT30;71522;50.870;3.524;2023-07-28T02:39:47;18.92;88.73
82001;SHT30;71522;50.870;3.524;2023-07-28T02:42:12;18.95;88.57
82001;SHT30;71522;50.870;3.524;2023-07-28T02:44:39;19.01;88.54
82001;SHT30;71522;50.870;3.524;2023-07-28T02:47:06;19.06;88.25
82001;SHT30;71522;50.870;3.524;2023-07-28T02:49:32;19.06;88.11
82001;SHT30;71522;50.870;3.524;2023-07-28T02:51:58;19.12;87.93
82001;SHT30;71522;50.870;3.524;2023-07-28T02:54:24;19.15;87.97
82001;SHT30;71522;50.870;3.524;2023-07-28T02:56:51;19.15;87.77
82001;SHT30;71522;50.870;3.524;2023-07-28T02:59:19;19.16;87.77
82001;SHT30;71522;50.870;3.524;2023-07-28T03:01:46;19.16;87.62
82001;SHT30;71522;50.870;3.524;2023-07-28T03:04:12;19.20;87.55
82001;SHT30;71522;50.870;3.524;2023-07-28T03:06:37;19.20;87.49
82001;SHT30;71522;50.870;3.524;2023-07-28T03:09:03;19.23;87.38
82001;SHT30;71522;50.870;3.524;2023-07-28T03:11:29;19.23;87.30
82001;SHT30;71522;50.870;3.524;2023-07-28T03:13:55;19.22;87.39
82001;SHT30;71522;50.870;3.524;2023-07-28T03:16:20;19.24;87.22
82001;SHT30;71522;50.870;3.524;2023-07-28T03:18:46;19.26;87.20
82001;SHT30;71522;50.870;3.524;2023-07-28T03:21:12;19.26;87.29
82001;SHT30;71522;50.870;3.524;2023-07-28T03:23:37;19.29;87.16
82001;SHT30;71522;50.870;3.524;2023-07-28T03:26:05;19.26;87.22
82001;SHT30;71522;50.870;3.524;2023-07-28T03:28:30;19.27;87.21
82001;SHT30;71522;50.870;3.524;2023-07-28T03:30:56;19.27;87.35
82001;SHT30;71522;50.870;3.524;2023-07-28T03:33:22;19.29;87.27
82001;SHT30;71522;50.870;3.524;2023-07-28T03:35:48;19.30;87.17
82001;SHT30;71522;50.870;3.524;2023-07-28T03:38:13;19.27;87.22
82001;SHT30;71522;50.870;3.524;2023-07-28T03:40:39;19.27;87.14
82001;SHT30;71522;50.870;3.524;2023-07-28T03:43:05;19.27;87.21
82001;SHT30;71522;50.870;3.524;2023-07-28T03:45:32;19.24;87.19
82001;SHT30;71522;50.870;3.524;2023-07-28T03:47:57;19.26;87.35
82001;SHT30;71522;50.870;3.524;2023-07-28T03:50:23;19.23;87.32
82001;SHT30;71522;50.870;3.524;2023-07-28T03:52:52;19.23;87.22
82001;SHT30;71522;50.870;3.524;2023-07-28T03:55:17;19.27;87.10
82001;SHT30;71522;50.870;3.524;2023-07-28T03:57:43;19.24;87.17
82001;SHT30;71522;50.870;3.524;2023-07-28T04:00:10;19.22;87.19
82001;SHT30;71522;50.870;3.524;2023-07-28T04:02:36;19.23;87.16
82001;SHT30;71522;50.870;3.524;2023-07-28T04:05:02;19.23;87.08
82001;SHT30;71522;50.870;3.524;2023-07-28T04:07:29;19.20;87.03
82001;SHT30;71522;50.870;3.524;2023-07-28T04:09:55;19.23;87.09
82001;SHT30;71522;50.870;3.524;2023-07-28T04:12:21;19.16;87.16
82001;SHT30;71522;50.870;3.524;2023-07-28T04:14:48;19.20;87.03
82001;SHT30;71522;50.870;3.524;2023-07-28T04:17:13;19.24;87.04
82001;SHT30;71522;50.870;3.524;2023-07-28T04:19:39;19.18;87.23
82001;SHT30;71522;50.870;3.524;2023-07-28T04:22:05;19.18;87.37
82001;SHT30;71522;50.870;3.524;2023-07-28T04:24:33;19.19;87.19
82001;SHT30;71522;50.870;3.524;2023-07-28T04:26:59;19.15;87.23
82001;SHT30;71522;50.870;3.524;2023-07-28T04:29:25;19.15;87.44
82001;SHT30;71522;50.870;3.524;2023-07-28T04:31:52;19.16;87.30
82001;SHT30;71522;50.870;3.524;2023-07-28T04:34:18;19.13;87.08
82001;SHT30;71522;50.870;3.524;2023-07-28T04:36:44;19.12;87.28
82001;SHT30;71522;50.870;3.524;2023-07-28T04:39:09;19.12;87.38
82001;SHT30;71522;50.870;3.524;2023-07-28T04:41:35;19.18;87.22
82001;SHT30;71522;50.870;3.524;2023-07-28T04:44:01;19.20;87.13
82001;SHT30;71522;50.870;3.524;2023-07-28T04:46:27;19.24;87.08
82001;SHT30;71522;50.870;3.524;2023-07-28T04:48:54;19.29;87.08
82001;SHT30;71522;50.870;3.524;2023-07-28T04:51:20;19.30;86.87
82001;SHT30;71522;50.870;3.524;2023-07-28T04:53:46;19.27;86.93
82001;SHT30;71522;50.870;3.524;2023-07-28T04:56:12;19.27;87.04
82001;SHT30;71522;50.870;3.524;2023-07-28T04:58:37;19.29;87.18
82001;SHT30;71522;50.870;3.524;2023-07-28T05:01:04;19.26;87.31
82001;SHT30;71522;50.870;3.524;2023-07-28T05:03:37;19.27;87.36
82001;SHT30;71522;50.870;3.524;2023-07-28T05:06:03;19.24;87.36
82001;SHT30;71522;50.870;3.524;2023-07-28T05:08:30;19.33;87.33
82001;SHT30;71522;50.870;3.524;2023-07-28T05:10:56;19.34;87.07
82001;SHT30;71522;50.870;3.524;2023-07-28T05:13:22;19.37;87.17
82001;SHT30;71522;50.870;3.524;2023-07-28T05:15:48;19.46;87.01
82001;SHT30;71522;50.870;3.524;2023-07-28T05:18:15;19.46;86.96
82001;SHT30;71522;50.870;3.524;2023-07-28T05:20:40;19.45;86.77
82001;SHT30;71522;50.870;3.524;2023-07-28T05:23:06;19.43;86.84
82001;SHT30;71522;50.870;3.524;2023-07-28T05:25:32;19.43;86.98
82001;SHT30;71522;50.870;3.524;2023-07-28T05:27:58;19.47;87.12
82001;SHT30;71522;50.870;3.524;2023-07-28T05:30:23;19.49;86.83
82001;SHT30;71522;50.870;3.524;2023-07-28T05:32:49;19.53;86.51
82001;SHT30;71522;50.870;3.524;2023-07-28T05:35:15;19.51;86.38
82001;SHT30;71522;50.870;3.524;2023-07-28T05:37:41;19.54;86.68
82001;SHT30;71522;50.870;3.524;2023-07-28T05:40:07;19.56;86.95
82001;SHT30;71522;50.870;3.524;2023-07-28T05:42:33;19.54;86.49
82001;SHT30;71522;50.870;3.524;2023-07-28T05:44:59;19.53;86.61
82001;SHT30;71522;50.870;3.524;2023-07-28T05:47:25;19.53;86.62
82001;SHT30;71522;50.870;3.524;2023-07-28T05:49:53;19.50;86.60
82001;SHT30;71522;50.870;3.524;2023-07-28T05:52:19;19.47;86.21
82001;SHT30;71522;50.870;3.524;2023-07-28T05:54:45;19.41;86.27
82001;SHT30;71522;50.870;3.524;2023-07-28T05:57:11;19.47;86.56
82001;SHT30;71522;50.870;3.524;2023-07-28T05:59:37;19.60;86.28
82001;SHT30;71522;50.870;3.524;2023-07-28T06:02:03;19.57;85.98
82001;SHT30;71522;50.870;3.524;2023-07-28T06:04:29;19.53;85.81
82001;SHT30;71522;50.870;3.524;2023-07-28T06:06:55;19.60;85.62
82001;SHT30;71522;50.870;3.524;2023-07-28T06:09:21;19.70;85.83
82001;SHT30;71522;50.870;3.524;2023-07-28T06:11:47;19.63;85.45
82001;SHT30;71522;50.870;3.524;2023-07-28T06:14:12;19.69;85.62
82001;SHT30;71522;50.870;3.524;2023-07-28T06:16:38;19.69;85.47
82001;SHT30;71522;50.870;3.524;2023-07-28T06:19:04;19.66;84.98
82001;SHT30;71522;50.870;3.524;2023-07-28T06:21:30;19.67;85.01
82001;SHT30;71522;50.870;3.524;2023-07-28T06:23:55;19.67;85.41
82001;SHT30;71522;50.870;3.524;2023-07-28T06:26:21;19.67;85.43
82001;SHT30;71522;50.870;3.524;2023-07-28T06:28:47;19.74;85.33
82001;SHT30;71522;50.870;3.524;2023-07-28T06:31:13;19.82;84.98
82001;SHT30;71522;50.870;3.524;2023-07-28T06:33:39;19.90;84.71
82001;SHT30;71522;50.870;3.524;2023-07-28T06:36:05;19.91;84.28
82001;SHT30;71522;50.870;3.524;2023-07-28T06:38:31;19.97;85.22
82001;SHT30;71522;50.870;3.524;2023-07-28T06:40:58;20.01;84.72
82001;SHT30;71522;50.870;3.524;2023-07-28T06:43:23;20.15;84.39
82001;SHT30;71522;50.870;3.524;2023-07-28T06:45:53;20.15;83.49
82001;SHT30;71522;50.870;3.524;2023-07-28T06:48:19;20.18;84.52
82001;SHT30;71522;50.870;3.524;2023-07-28T06:50:45;20.14;83.69
82001;SHT30;71522;50.870;3.524;2023-07-28T06:53:11;20.18;83.60
82001;SHT30;71522;50.870;3.524;2023-07-28T06:55:36;20.35;84.18
82001;SHT30;71522;50.870;3.524;2023-07-28T06:58:05;20.40;83.73
82001;SHT30;71522;50.870;3.524;2023-07-28T07:00:32;20.45;82.84
82001;SHT30;71522;50.870;3.524;2023-07-28T07:03:00;20.53;83.20
82001;SHT30;71522;50.870;3.524;2023-07-28T07:05:26;20.57;82.91
82001;SHT30;71522;50.870;3.524;2023-07-28T07:07:52;20.60;82.10
82001;SHT30;71522;50.870;3.524;2023-07-28T07:10:20;20.60;82.02
82001;SHT30;71522;50.870;3.524;2023-07-28T07:12:48;20.60;82.08
82001;SHT30;71522;50.870;3.524;2023-07-28T07:15:13;20.76;82.05
82001;SHT30;71522;50.870;3.524;2023-07-28T07:17:39;20.88;81.94
82001;SHT30;71522;50.870;3.524;2023-07-28T07:20:06;21.00;81.69
82001;SHT30;71522;50.870;3.524;2023-07-28T07:22:32;21.15;80.57
82001;SHT30;71522;50.870;3.524;2023-07-28T07:24:57;21.34;81.07
82001;SHT30;71522;50.870;3.524;2023-07-28T07:27:24;21.35;80.35
82001;SHT30;71522;50.870;3.524;2023-07-28T07:29:51;21.18;79.30
82001;SHT30;71522;50.870;3.524;2023-07-28T07:32:17;21.32;79.42
82001;SHT30;71522;50.870;3.524;2023-07-28T07:34:42;21.45;80.18
82001;SHT30;71522;50.870;3.524;2023-07-28T07:37:09;21.25;78.57
82001;SHT30;71522;50.870;3.524;2023-07-28T07:39:35;20.90;79.17
82001;SHT30;71522;50.870;3.524;2023-07-28T07:42:02;21.00;80.07
82001;SHT30;71522;50.870;3.524;2023-07-28T07:44:28;20.96;80.61
82001;SHT30;71522;50.870;3.524;2023-07-28T07:46:55;21.17;80.79
82001;SHT30;71522;50.870;3.524;2023-07-28T07:49:21;21.27;79.54
82001;SHT30;71522;50.870;3.524;2023-07-28T07:51:50;21.28;79.84
82001;SHT30;71522;50.870;3.524;2023-07-28T07:54:16;21.51;80.51
82001;SHT30;71522;50.870;3.524;2023-07-28T07:56:44;21.89;80.92
82001;SHT30;71522;50.870;3.524;2023-07-28T07:59:12;22.14;78.50
82001;SHT30;71522;50.870;3.524;2023-07-28T08:01:38;22.03;77.84
82001;SHT30;71522;50.870;3.524;2023-07-28T08:04:04;21.94;78.08
82001;SHT30;71522;50.870;3.524;2023-07-28T08:06:29;21.86;78.82
82001;SHT30;71522;50.870;3.524;2023-07-28T08:08:55;21.66;78.39
82001;SHT30;71522;50.870;3.524;2023-07-28T08:11:22;21.39;79.29
82001;SHT30;71522;50.870;3.524;2023-07-28T08:13:48;21.30;80.11
82001;SHT30;71522;50.870;3.524;2023-07-28T08:16:15;21.35;79.46
82001;SHT30;71522;50.870;3.524;2023-07-28T08:18:40;21.17;78.86
82001;SHT30;71522;50.870;3.524;2023-07-28T08:21:06;21.10;79.98
82001;SHT30;71522;50.870;3.524;2023-07-28T08:23:32;20.86;79.09
82001;SHT30;71522;50.870;3.524;2023-07-28T08:25:58;20.86;79.84
82001;SHT30;71522;50.870;3.524;2023-07-28T08:28:24;20.77;79.92
82001;SHT30;71522;50.870;3.524;2023-07-28T08:30:55;20.69;79.87
82001;SHT30;71522;50.870;3.524;2023-07-28T08:33:22;20.93;80.85
82001;SHT30;71522;50.870;3.524;2023-07-28T08:35:48;21.18;80.05
82001;SHT30;71522;50.870;3.524;2023-07-28T08:38:14;21.35;78.11
82001;SHT30;71522;50.870;3.524;2023-07-28T08:40:40;21.48;78.00
82001;SHT30;71522;50.870;3.524;2023-07-28T08:43:06;21.52;78.17
82001;SHT30;71522;50.870;3.524;2023-07-28T08:45:32;21.69;78.62
82001;SHT30;71522;50.870;3.524;2023-07-28T08:48:01;21.85;77.00
82001;SHT30;71522;50.870;3.524;2023-07-28T08:50:27;21.71;76.44
82001;SHT30;71522;50.870;3.524;2023-07-28T08:52:52;21.75;77.63
82001;SHT30;71522;50.870;3.524;2023-07-28T08:55:19;21.92;77.55
82001;SHT30;71522;50.870;3.524;2023-07-28T08:57:45;21.78;76.37
82001;SHT30;71522;50.870;3.524;2023-07-28T09:00:12;21.75;77.53
82001;SHT30;71522;50.870;3.524;2023-07-28T09:02:43;21.55;77.52
82001;SHT30;71522;50.870;3.524;2023-07-28T09:05:20;21.71;78.66
82001;SHT30;71522;50.870;3.524;2023-07-28T09:07:47;21.88;77.15
82001;SHT30;71522;50.870;3.524;2023-07-28T09:10:13;22.03;77.36
82001;SHT30;71522;50.870;3.524;2023-07-28T09:12:48;22.12;77.89
82001;SHT30;71522;50.870;3.524;2023-07-28T09:15:14;21.89;76.31
82001;SHT30;71522;50.870;3.524;2023-07-28T09:17:43;22.02;76.86
82001;SHT30;71522;50.870;3.524;2023-07-28T09:20:14;22.27;76.69
82001;SHT30;71522;50.870;3.524;2023-07-28T09:22:41;22.43;75.17
82001;SHT30;71522;50.870;3.524;2023-07-28T09:25:13;22.47;75.39
82001;SHT30;71522;50.870;3.524;2023-07-28T09:27:39;22.51;74.76
82001;SHT30;71522;50.870;3.524;2023-07-28T09:30:08;22.73;76.56
82001;SHT30;71522;50.870;3.524;2023-07-28T09:32:34;23.12;76.54
82001;SHT30;71522;50.870;3.524;2023-07-28T09:35:12;23.33;72.73
82001;SHT30;71522;50.870;3.524;2023-07-28T09:37:40;23.24;73.10
82001;SHT30;71522;50.870;3.524;2023-07-28T09:40:14;23.26;72.40
82001;SHT30;71522;50.870;3.524;2023-07-28T09:42:44;23.30;72.82
82001;SHT30;71522;50.870;3.524;2023-07-28T09:45:18;23.27;72.20
82001;SHT30;71522;50.870;3.524;2023-07-28T09:47:46;23.15;72.75
82001;SHT30;71522;50.870;3.524;2023-07-28T09:50:15;23.16;73.13
82001;SHT30;71522;50.870;3.524;2023-07-28T09:52:46;23.06;73.36
82001;SHT30;71522;50.870;3.524;2023-07-28T09:55:13;22.78;72.95
82001;SHT30;71522;50.870;3.524;2023-07-28T09:57:46;22.68;74.06
82001;SHT30;71522;50.870;3.524;2023-07-28T10:00:15;22.62;75.43
82001;SHT30;71522;50.870;3.524;2023-07-28T10:02:42;22.48;73.61
82001;SHT30;71522;50.870;3.524;2023-07-28T10:05:09;22.30;74.60
82001;SHT30;71522;50.870;3.524;2023-07-28T10:07:40;22.40;75.41
82001;SHT30;71522;50.870;3.524;2023-07-28T10:10:10;22.60;74.69
82001;SHT30;71522;50.870;3.524;2023-07-28T10:12:47;22.73;74.66
82001;SHT30;71522;50.870;3.524;2023-07-28T10:15:18;22.89;74.60
82001;SHT30;71522;50.870;3.524;2023-07-28T10:17:51;23.18;74.39
82001;SHT30;71522;50.870;3.524;2023-07-28T10:20:39;23.40;73.28
82001;SHT30;71522;50.870;3.524;2023-07-28T10:23:12;23.56;72.65
82001;SHT30;71522;50.870;3.524;2023-07-28T10:25:40;23.67;72.69
82001;SHT30;71522;50.870;3.524;2023-07-28T10:28:07;23.57;73.39
82001;SHT30;71522;50.870;3.524;2023-07-28T10:30:54;23.15;71.13
82001;SHT30;71522;50.870;3.524;2023-07-28T10:33:36;22.82;73.62
82001;SHT30;71522;50.870;3.524;2023-07-28T10:36:33;22.62;74.15
82001;SHT30;71522;50.870;3.524;2023-07-28T10:39:13;22.52;74.74
82001;SHT30;71522;50.870;3.524;2023-07-28T10:42:08;22.45;74.00
82001;SHT30;71522;50.870;3.524;2023-07-28T10:44:36;22.50;75.26
82001;SHT30;71522;50.870;3.524;2023-07-28T10:47:02;22.58;74.48
82001;SHT30;71522;50.870;3.524;2023-07-28T10:49:33;22.72;74.96
82001;SHT30;71522;50.870;3.524;2023-07-28T10:51:59;22.79;74.52
82001;SHT30;71522;50.870;3.524;2023-07-28T10:54:25;22.65;74.38
82001;SHT30;71522;50.870;3.524;2023-07-28T10:56:51;22.81;76.30
82001;SHT30;71522;50.870;3.524;2023-07-28T10:59:16;23.00;71.86
82001;SHT30;71522;50.870;3.524;2023-07-28T11:01:43;23.16;73.68
82001;SHT30;71522;50.870;3.524;2023-07-28T11:04:19;23.33;73.59
82001;SHT30;71522;50.870;3.524;2023-07-28T11:06:48;23.46;71.67
82001;SHT30;71522;50.870;3.524;2023-07-28T11:09:17;23.60;70.82
82001;SHT30;71522;50.870;3.524;2023-07-28T11:11:44;23.71;72.26
82001;SHT30;71522;50.870;3.524;2023-07-28T11:14:10;23.70;71.65
82001;SHT30;71522;50.870;3.524;2023-07-28T11:16:39;23.47;71.51
82001;SHT30;71522;50.870;3.524;2023-07-28T11:19:11;22.69;72.05
82001;SHT30;71522;50.870;3.524;2023-07-28T11:21:42;22.24;73.88
82001;SHT30;71522;50.870;3.524;2023-07-28T11:24:09;22.02;73.91
82001;SHT30;71522;50.870;3.524;2023-07-28T11:26:44;21.78;75.31
82001;SHT30;71522;50.870;3.524;2023-07-28T11:29:14;21.62;74.19
82001;SHT30;71522;50.870;3.524;2023-07-28T11:31:41;21.59;75.42
82001;SHT30;71522;50.870;3.524;2023-07-28T11:34:14;21.72;75.00
82001;SHT30;71522;50.870;3.524;2023-07-28T11:36:41;21.96;75.60
82001;SHT30;71522;50.870;3.524;2023-07-28T11:39:08;22.20;74.28
82001;SHT30;71522;50.870;3.524;2023-07-28T11:41:36;22.55;74.47
82001;SHT30;71522;50.870;3.524;2023-07-28T11:44:04;22.47;72.14
82001;SHT30;71522;50.870;3.524;2023-07-28T11:51:44;23.54;71.28
82001;SHT30;71522;50.870;3.524;2023-07-28T11:54:14;24.15;72.65
82001;SHT30;71522;50.870;3.524;2023-07-28T11:56:46;24.49;67.56
82001;SHT30;71522;50.870;3.524;2023-07-28T11:59:15;24.66;68.37
82001;SHT30;71522;50.870;3.524;2023-07-28T12:01:59;24.53;69.09
82001;SHT30;71522;50.870;3.524;2023-07-28T12:04:28;24.90;70.95
82001;SHT30;71522;50.870;3.524;2023-07-28T12:07:09;24.80;65.64
82001;SHT30;71522;50.870;3.524;2023-07-28T12:12:12;24.46;68.73
82001;SHT30;71522;50.870;3.524;2023-07-28T12:14:38;24.65;69.23
82001;SHT30;71522;50.870;3.524;2023-07-28T12:17:17;25.11;67.47
82001;SHT30;71522;50.870;3.524;2023-07-28T12:22:23;25.41;67.53
82001;SHT30;71522;50.870;3.524;2023-07-28T12:24:49;25.35;67.09
82001;SHT30;71522;50.870;3.524;2023-07-28T12:27:15;25.37;67.16
82001;SHT30;71522;50.870;3.524;2023-07-28T12:29:41;25.35;67.13
82001;SHT30;71522;50.870;3.524;2023-07-28T12:32:07;25.08;65.67
82001;SHT30;71522;50.870;3.524;2023-07-28T12:34:33;24.57;66.55
82001;SHT30;71522;50.870;3.524;2023-07-28T12:37:00;24.16;68.09
82001;SHT30;71522;50.870;3.524;2023-07-28T12:39:26;23.85;68.67
82001;SHT30;71522;50.870;3.524;2023-07-28T12:41:54;23.54;70.18
82001;SHT30;71522;50.870;3.524;2023-07-28T12:44:20;23.23;70.50
82001;SHT30;71522;50.870;3.524;2023-07-28T12:46:46;23.24;70.93
82001;SHT30;71522;50.870;3.524;2023-07-28T12:49:12;23.47;69.77
82001;SHT30;71522;50.870;3.524;2023-07-28T12:51:38;23.81;71.64
82001;SHT30;71522;50.870;3.524;2023-07-28T12:54:04;24.15;69.54
82001;SHT30;71522;50.870;3.524;2023-07-28T12:56:30;24.33;68.19
82001;SHT30;71522;50.870;3.524;2023-07-28T12:58:56;24.37;68.40
82001;SHT30;71522;50.870;3.524;2023-07-28T13:01:21;24.36;66.58
82001;SHT30;71522;50.870;3.524;2023-07-28T13:03:48;24.37;67.11
82001;SHT30;71522;50.870;3.524;2023-07-28T13:06:13;24.51;67.58
82001;SHT30;71522;50.870;3.524;2023-07-28T13:08:40;24.82;68.53
82001;SHT30;71522;50.870;3.524;2023-07-28T13:11:05;24.88;66.33
82001;SHT30;71522;50.870;3.524;2023-07-28T13:13:31;25.08;66.05
82001;SHT30;71522;50.870;3.524;2023-07-28T13:15:58;25.41;66.68
82001;SHT30;71522;50.870;3.524;2023-07-28T13:18:24;25.68;65.90
82001;SHT30;71522;50.870;3.524;2023-07-28T13:20:55;25.61;63.72
82001;SHT30;71522;50.870;3.524;2023-07-28T13:23:21;25.14;64.81
82001;SHT30;71522;50.870;3.524;2023-07-28T13:25:47;24.84;64.72
82001;SHT30;71522;50.870;3.524;2023-07-28T13:28:13;24.63;65.44
82001;SHT30;71522;50.870;3.524;2023-07-28T13:30:40;24.86;67.31
82001;SHT30;71522;50.870;3.524;2023-07-28T13:33:06;24.62;65.38
82001;SHT30;71522;50.870;3.524;2023-07-28T13:35:33;24.91;66.09
82001;SHT30;71522;50.870;3.524;2023-07-28T13:37:59;25.55;65.05
82001;SHT30;71522;50.870;3.524;2023-07-28T13:40:25;25.75;64.21
82001;SHT30;71522;50.870;3.524;2023-07-28T13:42:51;26.20;64.82
82001;SHT30;71522;50.870;3.524;2023-07-28T13:45:17;26.54;62.36
82001;SHT30;71522;50.870;3.524;2023-07-28T13:47:43;26.50;61.43
82001;SHT30;71522;50.870;3.524;2023-07-28T13:50:09;26.50;62.25
82001;SHT30;71522;50.870;3.524;2023-07-28T13:52:35;26.55;61.82
82001;SHT30;71522;50.870;3.524;2023-07-28T13:55:00;26.38;61.38
82001;SHT30;71522;50.870;3.524;2023-07-28T13:57:26;26.77;62.91
82001;SHT30;71522;50.870;3.524;2023-07-28T13:59:52;26.71;59.69
82001;SHT30;71522;50.870;3.524;2023-07-28T14:02:18;26.58;61.93
82001;SHT30;71522;50.870;3.524;2023-07-28T14:04:44;26.52;62.48
82001;SHT30;71522;50.870;3.524;2023-07-28T14:07:10;26.71;61.94
82001;SHT30;71522;50.870;3.524;2023-07-28T14:09:36;26.41;61.00
82001;SHT30;71522;50.870;3.524;2023-07-28T14:12:04;26.31;60.95
82001;SHT30;71522;50.870;3.524;2023-07-28T14:14:30;26.54;63.73
82001;SHT30;71522;50.870;3.524;2023-07-28T14:16:55;27.03;62.19
82001;SHT30;71522;50.870;3.524;2023-07-28T14:19:21;28.02;65.22
82001;SHT30;71522;50.870;3.524;2023-07-28T14:21:47;28.25;61.18
82001;SHT30;71522;50.870;3.524;2023-07-28T14:24:12;28.04;58.14
82001;SHT30;71522;50.870;3.524;2023-07-28T14:26:38;27.93;61.75
82001;SHT30;71522;50.870;3.524;2023-07-28T14:29:05;27.32;58.99
82001;SHT30;71522;50.870;3.524;2023-07-28T14:31:31;26.38;61.59
82001;SHT30;71522;50.870;3.524;2023-07-28T14:33:58;26.51;62.95
82001;SHT30;71522;50.870;3.524;2023-07-28T14:36:26;26.69;61.76
82001;SHT30;71522;50.870;3.524;2023-07-28T14:38:52;26.95;64.05
82001;SHT30;71522;50.870;3.524;2023-07-28T14:41:17;27.22;62.66
82001;SHT30;71522;50.870;3.524;2023-07-28T14:43:43;27.74;63.03
82001;SHT30;71522;50.870;3.524;2023-07-28T14:46:09;27.91;62.28
82001;SHT30;71522;50.870;3.524;2023-07-28T14:48:35;27.25;60.54
82001;SHT30;71522;50.870;3.524;2023-07-28T14:51:01;27.76;57.91
82001;SHT30;71522;50.870;3.524;2023-07-28T14:53:33;28.16;59.67
82001;SHT30;71522;50.870;3.524;2023-07-28T14:56:00;28.09;58.41
82001;SHT30;71522;50.870;3.524;2023-07-28T14:58:27;28.45;58.16
82001;SHT30;71522;50.870;3.524;2023-07-28T15:00:53;28.32;56.37
82001;SHT30;71522;50.870;3.524;2023-07-28T15:03:19;28.11;57.60
82001;SHT30;71522;50.870;3.524;2023-07-28T15:05:45;27.81;59.57
82001;SHT30;71522;50.870;3.524;2023-07-28T15:08:13;27.74;58.80
82001;SHT30;71522;50.870;3.524;2023-07-28T15:10:39;28.29;57.77
82001;SHT30;71522;50.870;3.524;2023-07-28T15:13:05;28.86;58.61
82001;SHT30;71522;50.870;3.524;2023-07-28T15:15:30;28.73;53.22
82001;SHT30;71522;50.870;3.524;2023-07-28T15:17:57;28.33;55.39
82001;SHT30;71522;50.870;3.524;2023-07-28T15:20:23;28.25;59.17
82001;SHT30;71522;50.870;3.524;2023-07-28T15:22:49;29.27;58.34
82001;SHT30;71522;50.870;3.524;2023-07-28T15:25:15;30.20;56.62
82001;SHT30;71522;50.870;3.524;2023-07-28T15:27:41;30.85;53.25
82001;SHT30;71522;50.870;3.524;2023-07-28T15:30:09;30.95;51.09
82001;SHT30;71522;50.870;3.524;2023-07-28T15:32:36;30.57;52.24
82001;SHT30;71522;50.870;3.524;2023-07-28T15:35:03;28.74;53.03
82001;SHT30;71522;50.870;3.524;2023-07-28T15:37:29;28.91;54.37
82001;SHT30;71522;50.870;3.524;2023-07-28T15:39:55;28.96;56.37